Notice: Undefined index: language in /home/u908952976/domains/airgaviota-va.com/public_html/vam/index.php on line 25
AirGaviota-VA

... VIRTUAL FLIGHT...OUR PASSION



 METAR AND TAF INFORMATION

Deprecated: The each() function is deprecated. This message will be suppressed on further calls in /home/u908952976/domains/airgaviota-va.com/public_html/vam/helpers/get_metar.php on line 20
METAR FOR MUVR
ADDS - METARS form results

(1148 UTC 09 April 2020)
Data provider http://aviationweather.gov/metar/data/
 
METAR text: MUVR 091133Z VRB02KT 4000 R06/0375V2100D MIFG FEW030 18/18 Q1014
Conditions at: MUVR (VARADERO , CU) observed 1133 UTC 09 April 2020
Temperature: 18.0°C (64°F)
Dewpoint: 18.0°C (64°F) [RH = 100%]
Pressure (altimeter): 29.94 inches Hg (1014.0 mb)
Winds: variable direction winds at 2 MPH (2 knots; 1.0 m/s)
Visibility: 2.49 miles (4.01 km)
Ceiling: at least 12,000 feet AGL
Clouds: few clouds at 3000 feet AGL
Weather: MIFG  (shallow fog)

METAR text: MUVR 091107Z 16005KT 0800 R06/0700V1100N FG SKC 18/18 Q1014
Conditions at: MUVR (VARADERO , CU) observed 1107 UTC 09 April 2020
Temperature: 18.0°C (64°F)
Dewpoint: 18.0°C (64°F) [RH = 100%]
Pressure (altimeter): 29.94 inches Hg (1014.0 mb)
Winds: from the SSE (160 degrees) at 6 MPH (5 knots; 2.6 m/s)
Visibility: 0.50 miles (0.80 km)
Ceiling: at least 12,000 feet AGL
Clouds: clear skies
Weather: FG  (fog)

METAR text: MUVR 091050Z 16004KT 4000 R06/0800V1300N MIFG SKC 18/18 Q1014
Conditions at: MUVR (VARADERO , CU) observed 1050 UTC 09 April 2020
Temperature: 18.0°C (64°F)
Dewpoint: 18.0°C (64°F) [RH = 100%]
Pressure (altimeter): 29.94 inches Hg (1014.0 mb)
Winds: from the SSE (160 degrees) at 5 MPH (4 knots; 2.1 m/s)
Visibility: 2.49 miles (4.01 km)
Ceiling: at least 12,000 feet AGL
Clouds: clear skies
Weather: MIFG  (shallow fog)

Forecast for: MUVR (VARADERO , CU)
Text: MUVR 091100Z 0912/1012 VRB03KT 9000 SCT020
Forecast period: 1200 to 1500 UTC 09 April 2020
Forecast type: FROM: standard forecast or significant change
Winds: variable direction winds at 3 MPH (3 knots; 1.5 m/s)
Visibility: 6 miles (9 km)
Ceiling: at least 12,000 feet AGL
Clouds: scattered clouds at 2000 feet AGL
Weather: no significant weather forecast for this period
Text: TEMPO 0912/0914 2000 BR
Forecast period: 1200 to 1400 UTC 09 April 2020
Forecast type: TEMPORARY: The following changes expected for less than half the time period
Visibility: 1.24 miles (2.00 km)
Ceiling: unknown
Clouds: missing
Weather: BR  (mist)
Text: BECMG 0915/0917 35008KT
Forecast period: 1500 UTC 09 April 2020 to 0100 UTC 10 April 2020
Forecast type: BECOMING: Conditions expected to become as follows by 1700 UTC 09 April 2020
Winds: from the N (350 degrees) at 9 MPH (8 knots; 4.1 m/s)
Visibility: 6 miles (9 km)
Ceiling: at least 12,000 feet AGL
Clouds: scattered clouds at 2000 feet AGL
Weather: no significant weather forecast for this period
Text: BECMG 1001/1003 VRB03KT
Forecast period: 0100 to 1200 UTC 10 April 2020
Forecast type: BECOMING: Conditions expected to become as follows by 0300 UTC 10 April 2020
Winds: variable direction winds at 3 MPH (3 knots; 1.5 m/s)
Visibility: 6 miles (9 km)
Ceiling: at least 12,000 feet AGL
Clouds: scattered clouds at 2000 feet AGL
Weather: no significant weather forecast for this period

 AIRPORT MAP

 RUNWAY INFORMATION
Runway 06 Runway length 11490 ft Runway width 148 ft
Runway elevation 210 ft Runway displaced threshold 0 ft Runway heading 56
Runway 24 Runway length 11490 ft Runway width 148 ft
Runway elevation 210 ft Runway displaced threshold 0 ft Runway heading 236

 AIRPORT FREQUENCIES
Type A/G Name VARADERO R Frequency 126.9 MHZ
Type A/G Name VARADERO R Frequency 1132.1 MHZ
Type APP Name VARADERO A Frequency 119.6 MHZ
Type TWR Name VARADERO T Frequency 118.4 MHZ

 AIRPORT NEAR NAVIGATION AIDS
Type VOR-DME Name Varder Frequency 114800 KHZ
Type NDB Name Varder Frequency 430 KHZ